Sohar Majis, Oman

8:36 PM GST on September 23, 2014 (GMT +0400)
Fujairah International | Change Station
CLOSE
Current Station
Airport
Location: Fujairah,
Elevation: 92 ft
Nearby Weather Stations

Elev 92 ft 25.11 °N, 56.32 °E | Updated 36 minutes ago

Mostly Cloudy
Mostly Cloudy
88 °F
Feels Like 100 °F
N
8
Wind Variable Wind from ESE

Today
High -- | Low -- °F
--% Chance of Precip.
Yesterday
High -- | Low -- °F
Precip. -- in
6:02 AM 6:09 PM
Waning Crescent, 0% visible
Pressure 29.71 in
Visibility 3.7 miles
Clouds Mostly Cloudy 2500 ft
Heat Index 100 °F
Dew Point 77 °F
Humidity 70%
Rainfall 0.00 in
Snow Depth Not available.
UV 0 out of 12
Pollen Not available.
Air Quality Not available.
Flu Activity Not available.
METAR OMFJ 231600Z 12007KT 6000 BKN025 31/25 Q1006 A2972

More Conditions Fewer Conditions

Pressure 29.71 in
Visibility 3.7 miles
Clouds Mostly Cloudy 2500 ft
Heat Index 100 °F
Dew Point 77 °F
Humidity 70%
Rainfall 0.00 in
Snow Depth Not available.
UV 0 out of 12
Pollen Not available.
Air Quality Not available.
Flu Activity Not available.
METAR OMFJ 231600Z 12007KT 6000 BKN025 31/25 Q1006 A2972

More Conditions Fewer Conditions

10-Day Weather Forecast

Almanac

Astronomy

Sep. 23, 2014 Rise Set
Actual Time 6:02 AM GST 6:09 PM GST
Civil Twilight 5:39 AM GST 6:31 PM GST
Nautical Twilight 5:13 AM GST 6:58 PM GST
Astronomical Twilight 4:46 AM GST 7:24 PM GST
Moon 5:07 AM GST 5:34 PM GST
Length of Visible Light 12h 52m
Length of Day
12h 06m
Tomorrow will be 1m 25s shorter.
Waning Crescent, 0% of the Moon is Illuminated
Today
Waning Crescent
Sep 24
New
Oct 1
First Quarter
Oct 8
Full
Oct 15
Last Quarter

Today's Extremes

Country Highs Country Lows

Community

WunderPhotos

Upload Photos

1,755,744 photos uploaded!

WunderBlogs® & News

By Dr. Jeff Masters
Director of Meteorology, Weather Underground
By Kari Strenfel
Meteorologist, Weather Underground
By Christopher C. Burt
Weather Historian, Weather Underground
September 23, 2014
September 23, 2014
September 23, 2014

Nearby

Snow Depth

Not available.

Earthquake Activity

City Distance Mag. Time & Date
No recent earthquake activity has been reported nearby.
Minimum magnitude displayed is 2.5.

Coastal Water Temperatures

Place Temperature
No Stations Reporting

Nearby Weather Stations